createdAt,value
2023-06-01T00:02:27.262Z,102583.84
2023-06-01T00:04:54.725Z,102577.78
2023-06-01T00:07:22.238Z,102579.59
2023-06-01T00:09:49.358Z,102576.03
2023-06-01T00:12:16.500Z,102575.66
2023-06-01T00:14:43.586Z,102561.00
2023-06-01T00:17:11.133Z,102572.44
2023-06-01T00:19:40.049Z,102566.75
2023-06-01T00:22:08.498Z,102565.44
2023-06-01T00:24:35.815Z,102557.97
2023-06-01T00:27:02.904Z,102555.22
2023-06-01T00:29:30.604Z,102557.31
2023-06-01T00:31:57.917Z,102557.94
2023-06-01T00:34:25.161Z,102563.47
2023-06-01T00:36:52.217Z,102562.66
2023-06-01T00:39:19.880Z,102553.06
2023-06-01T00:41:47.007Z,102559.41
2023-06-01T00:44:13.965Z,102556.31
2023-06-01T00:46:41.120Z,102556.66
2023-06-01T00:49:08.520Z,102551.13
2023-06-01T00:51:36.584Z,102564.13
2023-06-01T00:54:03.883Z,102550.31
2023-06-01T00:56:33.591Z,102556.66
2023-06-01T00:59:01.192Z,102556.31
2023-06-01T01:01:28.178Z,102555.19
2023-06-01T01:03:59.026Z,102553.38
2023-06-01T01:06:52.345Z,102569.16
2023-06-01T01:09:39.261Z,102544.28
2023-06-01T01:12:13.822Z,102561.34
2023-06-01T01:15:01.215Z,102542.97
2023-06-01T01:17:40.108Z,102548.03
2023-06-01T01:20:12.310Z,102548.03
2023-06-01T01:22:39.836Z,102550.47
2023-06-01T01:25:33.445Z,102543.47
2023-06-01T01:28:33.078Z,102540.72
2023-06-01T01:31:03.201Z,102541.19
2023-06-01T01:33:32.580Z,102544.78
2023-06-01T01:36:02.111Z,102537.78
2023-06-01T01:38:29.654Z,102546.56
2023-06-01T01:40:57.506Z,102553.88
2023-06-01T01:43:25.412Z,102538.25
2023-06-01T01:46:04.259Z,102542.97
2023-06-01T01:48:38.689Z,102537.78
2023-06-01T01:51:21.733Z,102536.81
2023-06-01T01:53:51.928Z,102534.38
2023-06-01T01:56:19.984Z,102539.91
2023-06-01T01:58:49.237Z,102537.44
2023-06-01T02:01:18.554Z,102532.09
2023-06-01T02:03:45.911Z,102528.38
2023-06-01T02:06:14.076Z,102529.81
2023-06-01T02:08:41.457Z,102529.97
2023-06-01T02:11:08.296Z,102531.09
2023-06-01T02:13:35.259Z,102527.38
2023-06-01T02:16:02.199Z,102517.31
2023-06-01T02:18:30.851Z,102512.56
2023-06-01T02:20:57.887Z,102518.44
2023-06-01T02:23:24.921Z,102514.22
2023-06-01T02:25:52.657Z,102513.09
2023-06-01T02:28:19.560Z,102511.16
2023-06-01T02:30:46.556Z,102510.81
2023-06-01T02:33:13.467Z,102507.38
2023-06-01T02:35:40.788Z,102510.47
2023-06-01T02:38:07.905Z,102501.38
2023-06-01T02:40:34.959Z,102505.44
2023-06-01T02:43:02.060Z,102503.00
2023-06-01T02:45:29.183Z,102502.50
2023-06-01T02:47:56.312Z,102504.47
2023-06-01T02:50:23.267Z,102498.63
2023-06-01T02:52:52.404Z,102496.00
2023-06-01T02:55:19.494Z,102496.00
2023-06-01T02:58:05.272Z,102484.94
2023-06-01T03:00:44.305Z,102481.88
2023-06-01T03:03:11.886Z,102492.94
2023-06-01T03:05:39.351Z,102482.34
2023-06-01T03:08:33.033Z,102489.50
2023-06-01T03:11:00.256Z,102495.84
2023-06-01T03:13:33.381Z,102479.94
2023-06-01T03:16:00.592Z,102484.00
2023-06-01T03:18:27.778Z,102484.31
2023-06-01T03:20:55.240Z,102483.50
2023-06-01T03:23:22.348Z,102477.16
2023-06-01T03:25:50.046Z,102480.88
2023-06-01T03:28:17.705Z,102484.16
2023-06-01T03:30:44.740Z,102475.88
2023-06-01T03:33:12.161Z,102484.47
2023-06-01T03:35:39.376Z,102478.31
2023-06-01T03:38:06.892Z,102480.13
2023-06-01T03:40:33.815Z,102476.19
2023-06-01T03:43:00.901Z,102470.34
2023-06-01T03:45:28.327Z,102469.19
2023-06-01T03:47:55.461Z,102476.81
2023-06-01T03:50:22.566Z,102480.75
2023-06-01T03:52:51.685Z,102481.56
2023-06-01T03:55:18.646Z,102479.47
2023-06-01T03:58:03.733Z,102478.31
2023-06-01T04:00:31.488Z,102482.69
2023-06-01T04:03:03.499Z,102484.81
2023-06-01T04:05:31.536Z,102484.31
2023-06-01T04:07:59.904Z,102478.78
2023-06-01T04:10:27.152Z,102480.56
2023-06-01T04:12:54.408Z,102478.28
2023-06-01T04:15:25.788Z,102484.47
2023-06-01T04:17:52.837Z,102480.09
2023-06-01T04:20:19.897Z,102475.03
2023-06-01T04:22:47.579Z,102482.50
2023-06-01T04:25:19.982Z,102480.56
2023-06-01T04:27:50.276Z,102474.22
2023-06-01T04:30:18.187Z,102475.03
2023-06-01T04:32:47.103Z,102472.41
2023-06-01T04:35:15.337Z,102472.59
2023-06-01T04:37:43.741Z,102470.47
2023-06-01T04:40:14.616Z,102477.13
2023-06-01T04:42:50.258Z,102484.13
2023-06-01T04:45:20.156Z,102482.81
2023-06-01T04:47:47.956Z,102481.84
2023-06-01T04:50:33.846Z,102475.47
2023-06-01T04:53:00.869Z,102478.88
2023-06-01T04:55:29.189Z,102472.19
2023-06-01T04:57:57.138Z,102480.00
2023-06-01T05:00:24.273Z,102478.06
2023-06-01T05:02:51.286Z,102475.13
2023-06-01T05:05:20.383Z,102475.78
2023-06-01T05:07:47.994Z,102472.91
2023-06-01T05:10:14.968Z,102477.63
2023-06-01T05:12:46.345Z,102470.91
2023-06-01T05:15:15.280Z,102475.28
2023-06-01T05:17:43.020Z,102473.34
2023-06-01T05:20:13.884Z,102467.34
2023-06-01T05:22:43.876Z,102471.88
2023-06-01T05:25:11.183Z,102472.03
2023-06-01T05:27:39.063Z,102475.25
2023-06-01T05:30:06.966Z,102476.38
2023-06-01T05:32:34.151Z,102471.28
2023-06-01T05:35:10.892Z,102474.09
2023-06-01T05:37:38.552Z,102471.00
2023-06-01T05:40:08.922Z,102463.34
2023-06-01T05:42:37.273Z,102466.88
2023-06-01T05:45:04.908Z,102458.75
2023-06-01T05:47:32.058Z,102460.88
2023-06-01T05:49:59.627Z,102463.47
2023-06-01T05:52:26.647Z,102468.31
2023-06-01T05:54:55.052Z,102471.84
2023-06-01T05:57:22.214Z,102478.53
2023-06-01T05:59:49.178Z,102470.09
2023-06-01T06:02:16.846Z,102471.91
2023-06-01T06:04:45.315Z,102469.78
2023-06-01T06:07:13.229Z,102472.88
2023-06-01T06:09:41.626Z,102472.84
2023-06-01T06:12:09.385Z,102456.84
2023-06-01T06:14:36.406Z,102462.22
2023-06-01T06:17:03.812Z,102462.94
2023-06-01T06:19:30.978Z,102454.13
2023-06-01T06:21:58.080Z,102463.72
2023-06-01T06:24:25.152Z,102464.97
2023-06-01T06:26:52.069Z,102468.78
2023-06-01T06:29:19.053Z,102467.16
2023-06-01T06:31:46.312Z,102456.91
2023-06-01T06:34:14.194Z,102459.19
2023-06-01T06:36:41.805Z,102465.00
2023-06-01T06:39:08.679Z,102462.09
2023-06-01T06:41:35.660Z,102461.91
2023-06-01T06:44:02.664Z,102470.34
2023-06-01T06:46:29.710Z,102464.66
2023-06-01T06:48:56.746Z,102459.38
2023-06-01T06:51:24.062Z,102472.91
2023-06-01T06:53:51.023Z,102471.41
2023-06-01T06:56:18.263Z,102463.66
2023-06-01T06:58:56.567Z,102467.78
2023-06-01T07:01:31.057Z,102471.47
2023-06-01T07:03:58.210Z,102476.00
2023-06-01T07:06:25.209Z,102471.13
2023-06-01T07:08:52.170Z,102478.66
2023-06-01T07:11:19.881Z,102476.22
2023-06-01T07:13:46.751Z,102465.81
2023-06-01T07:16:13.994Z,102463.31
2023-06-01T07:18:41.443Z,102461.34
2023-06-01T07:21:08.552Z,102466.22
2023-06-01T07:23:35.906Z,102464.38
2023-06-01T07:26:02.996Z,102484.75
2023-06-01T07:28:31.470Z,102482.56
2023-06-01T07:30:59.469Z,102479.25
2023-06-01T07:33:27.661Z,102469.28
2023-06-01T07:35:54.835Z,102472.78
2023-06-01T07:38:22.545Z,102468.25
2023-06-01T07:40:51.492Z,102473.09
2023-06-01T07:43:18.327Z,102473.31
2023-06-01T07:45:45.540Z,102479.53
2023-06-01T07:48:13.050Z,102476.28
2023-06-01T07:50:40.053Z,102475.25
2023-06-01T07:53:07.316Z,102474.47
2023-06-01T07:55:34.284Z,102467.69
2023-06-01T07:58:01.254Z,102466.09
2023-06-01T08:00:28.356Z,102466.63
2023-06-01T08:02:55.273Z,102472.03
2023-06-01T08:05:23.148Z,102468.38
2023-06-01T08:07:50.233Z,102476.38
2023-06-01T08:10:17.636Z,102465.13
2023-06-01T08:12:44.595Z,102476.81
2023-06-01T08:15:12.769Z,102468.13
2023-06-01T08:17:39.999Z,102464.75
2023-06-01T08:20:12.053Z,102467.03
2023-06-01T08:22:39.352Z,102471.50
2023-06-01T08:25:06.922Z,102470.69
2023-06-01T08:27:33.918Z,102476.16
2023-06-01T08:30:00.859Z,102467.50
2023-06-01T08:32:27.918Z,102472.97
2023-06-01T08:34:55.042Z,102478.03
2023-06-01T08:37:21.989Z,102475.63
2023-06-01T08:39:48.829Z,102474.94
2023-06-01T08:42:29.912Z,102469.00
2023-06-01T08:44:59.425Z,102472.50
2023-06-01T08:47:27.166Z,102481.00
2023-06-01T08:49:54.673Z,102474.78
2023-06-01T08:52:23.528Z,102470.81
2023-06-01T08:54:51.392Z,102468.56
2023-06-01T08:57:18.496Z,102458.91
2023-06-01T08:59:46.992Z,102471.47
2023-06-01T09:02:16.616Z,102472.59
2023-06-01T09:04:45.593Z,102469.19
2023-06-01T09:07:14.419Z,102465.75
2023-06-01T09:09:42.002Z,102453.38
2023-06-01T09:12:25.341Z,102457.78
2023-06-01T09:15:08.905Z,102449.41
2023-06-01T09:17:36.905Z,102446.47
2023-06-01T09:20:05.907Z,102454.25
2023-06-01T09:22:46.344Z,102449.81
2023-06-01T09:25:15.149Z,102452.81
2023-06-01T09:27:50.174Z,102441.47
2023-06-01T09:30:19.121Z,102447.03
2023-06-01T09:32:51.864Z,102452.22
2023-06-01T09:35:48.409Z,102445.97
2023-06-01T09:38:22.863Z,102448.53
2023-06-01T09:41:05.163Z,102455.41
2023-06-01T09:43:38.841Z,102447.22
2023-06-01T09:46:09.852Z,102451.69
2023-06-01T09:48:38.086Z,102441.84
2023-06-01T09:51:05.784Z,102449.81
2023-06-01T09:53:42.996Z,102456.53
2023-06-01T09:56:10.396Z,102453.22
2023-06-01T09:58:40.974Z,102441.81
2023-06-01T10:01:10.260Z,102438.22
2023-06-01T10:03:46.403Z,102445.88
2023-06-01T10:06:14.011Z,102440.41
2023-06-01T10:08:43.375Z,102449.13
2023-06-01T10:11:10.740Z,102440.09
2023-06-01T10:13:37.702Z,102443.34
2023-06-01T10:16:05.536Z,102450.88
2023-06-01T10:18:33.996Z,102444.34
2023-06-01T10:21:01.582Z,102447.47
2023-06-01T10:23:31.802Z,102444.94
2023-06-01T10:26:06.147Z,102437.06
2023-06-01T10:28:35.825Z,102437.66
2023-06-01T10:31:34.744Z,102437.72
2023-06-01T10:34:01.890Z,102431.28
2023-06-01T10:36:54.087Z,102427.47
2023-06-01T10:39:32.065Z,102428.47
2023-06-01T10:42:19.809Z,102419.91
2023-06-01T10:44:48.248Z,102421.63
2023-06-01T10:47:15.132Z,102437.56
2023-06-01T10:49:48.311Z,102428.59
2023-06-01T10:52:31.590Z,102434.44
2023-06-01T10:55:07.671Z,102436.94
2023-06-01T10:57:35.371Z,102424.06
2023-06-01T11:00:23.544Z,102429.66
2023-06-01T11:02:58.112Z,102431.47
2023-06-01T11:05:51.676Z,102430.66
2023-06-01T11:08:21.420Z,102437.00
2023-06-01T11:10:55.533Z,102432.25
2023-06-01T11:13:28.469Z,102431.75
2023-06-01T11:16:09.824Z,102444.84
2023-06-01T11:19:05.034Z,102422.78
2023-06-01T11:21:36.436Z,102426.38
2023-06-01T11:24:14.604Z,102421.19
2023-06-01T11:26:45.534Z,102434.91
2023-06-01T11:29:16.426Z,102439.25
2023-06-01T11:31:49.939Z,102431.84
2023-06-01T11:34:20.025Z,102428.00
2023-06-01T11:36:49.558Z,102429.25
2023-06-01T11:39:25.213Z,102428.41
2023-06-01T11:42:13.680Z,102423.34
2023-06-01T11:44:46.199Z,102422.53
2023-06-01T11:47:14.290Z,102429.50
2023-06-01T11:49:46.304Z,102423.53
2023-06-01T11:52:13.485Z,102425.28
2023-06-01T11:54:40.697Z,102419.94
2023-06-01T11:57:08.989Z,102432.78
2023-06-01T11:59:47.280Z,102428.38
2023-06-01T12:02:25.650Z,102432.63
2023-06-01T12:05:00.879Z,102428.22
2023-06-01T12:07:28.582Z,102422.59
2023-06-01T12:09:56.473Z,102417.41
2023-06-01T12:12:27.964Z,102417.28
2023-06-01T12:14:55.310Z,102415.41
2023-06-01T12:17:22.307Z,102423.00
2023-06-01T12:19:50.281Z,102415.94
2023-06-01T12:22:18.100Z,102408.88
2023-06-01T12:24:46.064Z,102407.13
2023-06-01T12:27:18.256Z,102405.72
2023-06-01T12:29:48.864Z,102411.31
2023-06-01T12:32:19.140Z,102413.28
2023-06-01T12:35:04.467Z,102414.63
2023-06-01T12:37:31.529Z,102414.28
2023-06-01T12:39:58.560Z,102413.13
2023-06-01T12:42:39.186Z,102426.22
2023-06-01T12:45:09.825Z,102419.06
2023-06-01T12:47:43.625Z,102427.16
2023-06-01T12:50:13.566Z,102428.41
2023-06-01T12:52:43.475Z,102434.44
2023-06-01T12:55:11.219Z,102436.38
2023-06-01T12:57:39.488Z,102429.75
2023-06-01T13:00:07.896Z,102437.47
2023-06-01T13:02:36.898Z,102429.63
2023-06-01T13:05:06.168Z,102418.53
2023-06-01T13:07:33.268Z,102407.47
2023-06-01T13:10:00.450Z,102417.28
2023-06-01T13:12:29.249Z,102411.09
2023-06-01T13:14:57.073Z,102414.19
2023-06-01T13:17:24.212Z,102411.81
2023-06-01T13:19:51.275Z,102410.81
2023-06-01T13:22:18.248Z,102422.59
2023-06-01T13:27:15.400Z,102416.19
2023-06-01T13:29:43.199Z,102420.53
2023-06-01T13:32:10.532Z,102415.53
2023-06-01T13:34:37.684Z,102429.28
2023-06-01T13:37:05.575Z,102418.38
2023-06-01T13:39:32.552Z,102424.22
2023-06-01T13:41:59.458Z,102419.53
2023-06-01T13:44:26.896Z,102422.44
2023-06-01T13:46:54.107Z,102422.59
2023-06-01T13:49:21.961Z,102421.38
2023-06-01T13:51:50.265Z,102416.19
2023-06-01T13:54:17.612Z,102414.69
2023-06-01T13:56:45.601Z,102418.13
2023-06-01T13:59:12.937Z,102417.09
2023-06-01T14:01:39.954Z,102404.03
2023-06-01T14:04:07.368Z,102407.13
2023-06-01T14:06:35.432Z,102407.38
2023-06-01T14:09:02.415Z,102403.44
2023-06-01T14:11:31.168Z,102408.09
2023-06-01T14:13:58.468Z,102397.06
2023-06-01T14:16:25.924Z,102395.25
2023-06-01T14:18:52.872Z,102396.13
2023-06-01T14:21:19.920Z,102399.59
2023-06-01T14:23:46.892Z,102387.06
2023-06-01T14:26:14.001Z,102394.28
2023-06-01T14:28:41.165Z,102383.06
2023-06-01T14:31:08.624Z,102381.91
2023-06-01T14:33:35.751Z,102393.03
2023-06-01T14:36:02.757Z,102395.47
2023-06-01T14:38:29.663Z,102386.78
2023-06-01T14:40:57.310Z,102384.00
2023-06-01T14:43:24.333Z,102385.03
2023-06-01T14:45:51.365Z,102384.06
2023-06-01T14:48:18.543Z,102392.38
2023-06-01T14:50:45.623Z,102379.66
2023-06-01T14:53:12.946Z,102375.41
2023-06-01T14:55:43.362Z,102376.09
2023-06-01T14:58:10.630Z,102375.44
2023-06-01T15:00:38.206Z,102377.44
2023-06-01T15:03:05.739Z,102364.66
2023-06-01T15:05:32.963Z,102364.59
2023-06-01T15:08:00.489Z,102358.84
2023-06-01T15:10:27.769Z,102369.19
2023-06-01T15:12:54.763Z,102366.59
2023-06-01T15:15:21.700Z,102365.00
2023-06-01T15:17:48.782Z,102367.28
2023-06-01T15:20:16.160Z,102367.88
2023-06-01T15:22:43.198Z,102364.09
2023-06-01T15:25:10.466Z,102364.53
2023-06-01T15:27:37.583Z,102367.44
2023-06-01T15:30:05.513Z,102367.19
2023-06-01T15:32:32.889Z,102362.47
2023-06-01T15:34:59.960Z,102368.03
2023-06-01T15:37:26.962Z,102360.09
2023-06-01T15:39:54.270Z,102358.56
2023-06-01T15:42:21.265Z,102367.81
2023-06-01T15:44:48.153Z,102365.28
2023-06-01T15:47:15.045Z,102370.56
2023-06-01T15:49:43.098Z,102360.53
2023-06-01T15:52:10.803Z,102362.59
2023-06-01T15:54:38.239Z,102365.16
2023-06-01T15:57:05.715Z,102361.09
2023-06-01T15:59:32.913Z,102366.31
2023-06-01T16:02:02.008Z,102359.69
2023-06-01T16:04:29.149Z,102363.94
2023-06-01T16:06:57.565Z,102352.03
2023-06-01T16:09:24.723Z,102353.50
2023-06-01T16:11:51.625Z,102357.41
2023-06-01T16:14:19.973Z,102362.13
2023-06-01T16:16:46.917Z,102350.25
2023-06-01T16:19:14.279Z,102347.75
2023-06-01T16:21:41.194Z,102344.09
2023-06-01T16:24:08.460Z,102342.22
2023-06-01T16:26:35.636Z,102343.59
2023-06-01T16:29:02.514Z,102330.09
2023-06-01T16:31:29.527Z,102339.78
2023-06-01T16:33:56.687Z,102341.09
2023-06-01T16:36:23.704Z,102335.53
2023-06-01T16:38:50.723Z,102338.75
2023-06-01T16:41:17.885Z,102332.50
2023-06-01T16:43:46.102Z,102335.88
2023-06-01T16:46:13.358Z,102326.75
2023-06-01T16:48:40.549Z,102328.13
2023-06-01T16:51:07.482Z,102333.19
2023-06-01T16:53:34.510Z,102331.69
2023-06-01T16:56:01.792Z,102322.00
2023-06-01T16:58:29.049Z,102332.16
2023-06-01T17:00:56.020Z,102335.59
2023-06-01T17:03:23.120Z,102318.84
2023-06-01T17:05:50.209Z,102323.56
2023-06-01T17:08:17.293Z,102312.69
2023-06-01T17:10:45.087Z,102315.00
2023-06-01T17:13:12.062Z,102316.00
2023-06-01T17:15:39.322Z,102317.06
2023-06-01T17:18:06.437Z,102316.41
2023-06-01T17:20:33.330Z,102311.41
2023-06-01T17:23:00.403Z,102305.69
2023-06-01T17:25:27.259Z,102311.63
2023-06-01T17:27:54.269Z,102304.81
2023-06-01T17:30:21.298Z,102317.97
2023-06-01T17:32:48.444Z,102309.75
2023-06-01T17:35:15.439Z,102306.28
2023-06-01T17:37:42.851Z,102305.59
2023-06-01T17:40:10.199Z,102315.28
2023-06-01T17:42:37.178Z,102313.19
2023-06-01T17:45:04.568Z,102317.13
2023-06-01T17:47:31.718Z,102318.03
2023-06-01T17:49:58.668Z,102311.78
2023-06-01T17:52:26.205Z,102321.72
2023-06-01T17:54:54.254Z,102310.56
2023-06-01T17:57:21.350Z,102313.53
2023-06-01T17:59:49.960Z,102305.25
2023-06-01T18:02:17.038Z,102305.34
2023-06-01T18:04:43.936Z,102312.38
2023-06-01T18:07:10.895Z,102307.06
2023-06-01T18:09:38.222Z,102308.88
2023-06-01T18:12:06.153Z,102314.63
2023-06-01T18:15:05.812Z,102310.28
2023-06-01T18:17:33.009Z,102315.97
2023-06-01T18:20:00.071Z,102305.38
2023-06-01T18:22:27.013Z,102308.28
2023-06-01T18:24:54.254Z,102318.38
2023-06-01T18:27:21.567Z,102317.78
2023-06-01T18:29:48.504Z,102317.38
2023-06-01T18:32:15.749Z,102311.50
2023-06-01T18:34:42.707Z,102321.06
2023-06-01T18:37:09.595Z,102312.97
2023-06-01T18:39:36.677Z,102311.34
2023-06-01T18:42:04.825Z,102307.91
2023-06-01T18:44:31.675Z,102313.59
2023-06-01T18:46:58.752Z,102308.56
2023-06-01T18:49:25.788Z,102299.09
2023-06-01T18:51:55.811Z,102303.81
2023-06-01T18:54:22.782Z,102301.25
2023-06-01T18:56:49.757Z,102304.69
2023-06-01T18:59:16.842Z,102293.47
2023-06-01T19:01:44.071Z,102284.72
2023-06-01T19:04:11.109Z,102284.25
2023-06-01T19:06:38.018Z,102290.31
2023-06-01T19:09:05.193Z,102291.22
2023-06-01T19:11:32.207Z,102290.56
2023-06-01T19:13:59.062Z,102280.66
2023-06-01T19:16:31.753Z,102281.34
2023-06-01T19:18:59.693Z,102288.16
2023-06-01T19:21:33.453Z,102283.63
2023-06-01T19:24:03.037Z,102283.97
2023-06-01T19:26:32.064Z,102284.09
2023-06-01T19:29:04.540Z,102280.97
2023-06-01T19:31:36.150Z,102289.63
2023-06-01T19:34:08.317Z,102285.91
2023-06-01T19:36:44.946Z,102290.81
2023-06-01T19:39:32.515Z,102292.63
2023-06-01T19:42:07.844Z,102299.19
2023-06-01T19:44:35.800Z,102290.25
2023-06-01T19:47:04.480Z,102283.25
2023-06-01T19:49:42.124Z,102291.19
2023-06-01T19:52:12.434Z,102294.97
2023-06-01T19:54:43.001Z,102293.34
2023-06-01T19:57:09.999Z,102292.53
2023-06-01T19:59:39.277Z,102292.88
2023-06-01T20:02:08.944Z,102291.25
2023-06-01T20:04:35.921Z,102290.94
2023-06-01T20:07:02.998Z,102295.66
2023-06-01T20:09:30.089Z,102301.63
2023-06-01T20:11:58.453Z,102302.50
2023-06-01T20:14:29.636Z,102304.81
2023-06-01T20:16:58.952Z,102299.94
2023-06-01T20:19:28.389Z,102301.38
2023-06-01T20:21:59.255Z,102291.28
2023-06-01T20:24:31.225Z,102296.81
2023-06-01T20:27:00.706Z,102301.06
2023-06-01T20:29:30.111Z,102295.06
2023-06-01T20:31:59.739Z,102302.41
2023-06-01T20:34:28.353Z,102303.38
2023-06-01T20:36:55.512Z,102290.56
2023-06-01T20:39:23.974Z,102286.53
2023-06-01T20:41:56.148Z,102291.88
2023-06-01T20:44:23.599Z,102293.00
2023-06-01T20:46:52.061Z,102297.38
2023-06-01T20:49:24.464Z,102291.72
2023-06-01T20:51:51.872Z,102304.75
2023-06-01T20:54:26.873Z,102299.25
2023-06-01T20:56:58.599Z,102298.94
2023-06-01T20:59:32.681Z,102292.47
2023-06-01T21:02:01.796Z,102301.69
2023-06-01T21:04:31.851Z,102288.69
2023-06-01T21:06:59.754Z,102301.84
2023-06-01T21:09:27.130Z,102287.72
2023-06-01T21:11:56.946Z,102287.22
2023-06-01T21:14:23.983Z,102288.38
2023-06-01T21:16:51.270Z,102292.13
2023-06-01T21:19:18.614Z,102282.53
2023-06-01T21:21:45.800Z,102297.31
2023-06-01T21:24:13.772Z,102304.44
2023-06-01T21:26:40.883Z,102300.91
2023-06-01T21:29:10.236Z,102297.16
2023-06-01T21:31:37.603Z,102295.88
2023-06-01T21:34:04.747Z,102301.72
2023-06-01T21:36:31.901Z,102302.38
2023-06-01T21:38:58.994Z,102297.19
2023-06-01T21:41:26.322Z,102301.09
2023-06-01T21:43:53.559Z,102297.50
2023-06-01T21:46:20.560Z,102297.19
2023-06-01T21:48:47.818Z,102296.53
2023-06-01T21:51:15.253Z,102294.91
2023-06-01T21:53:42.262Z,102294.28
2023-06-01T21:56:09.330Z,102297.19
2023-06-01T21:58:39.047Z,102290.69
2023-06-01T22:01:07.209Z,102290.22
2023-06-01T22:03:35.045Z,102283.72
2023-06-01T22:06:02.632Z,102288.13
2023-06-01T22:08:29.762Z,102284.84
2023-06-01T22:10:56.745Z,102289.41
2023-06-01T22:13:23.788Z,102283.53
2023-06-01T22:15:50.851Z,102287.94
2023-06-01T22:18:18.661Z,102286.97
2023-06-01T22:20:45.746Z,102290.06
2023-06-01T22:23:12.886Z,102290.88
2023-06-01T22:25:40.015Z,102291.69
2023-06-01T22:28:07.173Z,102289.25
2023-06-01T22:30:34.296Z,102283.91
2023-06-01T22:33:01.864Z,102290.06
2023-06-01T22:35:29.082Z,102286.00
2023-06-01T22:37:56.423Z,102285.34
2023-06-01T22:40:24.746Z,102273.66
2023-06-01T22:42:53.585Z,102279.66
2023-06-01T22:45:21.271Z,102282.41
2023-06-01T22:47:48.963Z,102290.69
2023-06-01T22:50:19.799Z,102287.94
2023-06-01T22:52:49.277Z,102279.19
2023-06-01T22:55:16.849Z,102281.13
2023-06-01T22:57:43.991Z,102278.69
2023-06-01T23:00:12.507Z,102281.13
2023-06-01T23:02:39.595Z,102280.97
2023-06-01T23:05:06.859Z,102274.81
2023-06-01T23:07:34.159Z,102280.81
2023-06-01T23:10:01.781Z,102281.97
2023-06-01T23:12:29.106Z,102282.75
2023-06-01T23:14:56.521Z,102279.53
2023-06-01T23:17:25.409Z,102282.59
2023-06-01T23:19:53.061Z,102281.47
2023-06-01T23:22:20.349Z,102287.31
2023-06-01T23:24:47.666Z,102286.16
2023-06-01T23:27:15.166Z,102289.25
2023-06-01T23:29:42.172Z,102286.16
2023-06-01T23:32:11.277Z,102284.22
2023-06-01T23:34:38.709Z,102292.50
2023-06-01T23:37:06.631Z,102290.09
2023-06-01T23:39:33.854Z,102292.34
2023-06-01T23:42:01.045Z,102289.91
2023-06-01T23:44:28.188Z,102285.22
2023-06-01T23:46:55.288Z,102286.81
2023-06-01T23:49:22.480Z,102290.09
2023-06-01T23:51:49.625Z,102282.63
2023-06-01T23:54:16.673Z,102283.75
2023-06-01T23:56:43.885Z,102282.75
2023-06-01T23:59:11.379Z,102286.34
